Time;durP1;ratioP1;P1;durP2;ratioP2;P2;SDS_P1;SDS_P2;PMS_P1;PMS_P2;Temp;Humidity;BMP_temperature;BMP_pressure;BME280_temperature;BME280_humidity;BME280_pressure;Samples;Min_cycle;Max_cycle;Signal;HPM_P1;HPM_P2
2021/01/03 00:01:33;;;;;;;10.05;8.13;;;2.00;99.90;;;;;;6221759;23;20193;-79
2021/01/03 00:03:59;;;;;;;10.18;9.18;;;1.90;99.90;;;;;;6221421;23;20245;-79
2021/01/03 00:06:26;;;;;;;12.35;10.68;;;1.80;99.90;;;;;;6220779;23;20198;-79
2021/01/03 00:08:52;;;;;;;11.63;8.98;;;1.80;99.90;;;;;;6220890;23;20702;-79
2021/01/03 00:11:18;;;;;;;10.52;9.10;;;1.90;99.90;;;;;;6220894;23;20178;-80
2021/01/03 00:13:45;;;;;;;9.75;8.35;;;1.80;99.90;;;;;;6221257;23;20529;-80
2021/01/03 00:16:11;;;;;;;12.82;8.57;;;1.90;99.90;;;;;;6221302;23;20185;-80
2021/01/03 00:18:37;;;;;;;10.73;8.80;;;1.90;99.90;;;;;;6222548;23;20186;-80
2021/01/03 00:21:04;;;;;;;8.85;7.95;;;1.90;99.90;;;;;;6222590;23;20178;-80
2021/01/03 00:23:30;;;;;;;9.10;8.20;;;1.80;99.90;;;;;;6221997;23;20611;-80
2021/01/03 00:25:56;;;;;;;10.63;9.27;;;1.70;99.90;;;;;;6221949;23;20201;-79
2021/01/03 00:28:23;;;;;;;10.30;9.25;;;1.80;99.90;;;;;;6221332;23;20246;-81
2021/01/03 00:30:50;;;;;;;12.88;9.52;;;1.70;99.90;;;;;;6222237;23;20178;-80
2021/01/03 00:33:17;;;;;;;12.90;11.60;;;1.70;99.90;;;;;;6222006;23;20182;-80
2021/01/03 00:35:43;;;;;;;11.55;9.98;;;1.70;99.90;;;;;;6221692;23;20240;-80
2021/01/03 00:38:11;;;;;;;9.15;7.60;;;1.70;99.90;;;;;;6222048;23;20232;-80
2021/01/03 00:40:37;;;;;;;12.80;9.45;;;1.70;99.90;;;;;;6222824;23;20209;-80
2021/01/03 00:43:05;;;;;;;8.95;8.10;;;1.80;99.90;;;;;;6221848;23;20182;-80
2021/01/03 00:45:32;;;;;;;8.10;6.97;;;1.80;99.90;;;;;;6221664;23;20182;-81
2021/01/03 00:47:59;;;;;;;8.25;7.45;;;1.80;99.90;;;;;;6221709;23;20202;-81
2021/01/03 00:50:26;;;;;;;7.22;6.53;;;1.90;99.90;;;;;;6221629;23;20182;-80
2021/01/03 00:52:52;;;;;;;13.40;8.65;;;1.80;99.90;;;;;;6221819;23;20182;-80
2021/01/03 00:55:19;;;;;;;9.00;7.57;;;1.80;99.90;;;;;;6221994;23;20182;-80
2021/01/03 00:57:46;;;;;;;8.55;7.47;;;1.70;99.90;;;;;;6222206;23;20245;-81
2021/01/03 01:00:15;;;;;;;9.93;8.75;;;1.80;99.90;;;;;;6222061;23;20193;-81
2021/01/03 01:02:42;;;;;;;10.15;9.15;;;1.80;99.90;;;;;;6221753;23;20563;-81
2021/01/03 01:05:10;;;;;;;11.27;8.57;;;1.90;99.90;;;;;;6221463;23;20190;-81
2021/01/03 01:07:37;;;;;;;9.70;8.30;;;2.00;99.90;;;;;;6222157;23;20509;-81
2021/01/03 01:10:04;;;;;;;9.88;8.35;;;1.90;99.90;;;;;;6223838;23;20186;-80
2021/01/03 01:12:34;;;;;;;9.45;8.45;;;1.80;99.90;;;;;;6223114;23;20185;-81
2021/01/03 01:15:01;;;;;;;11.60;10.38;;;1.80;99.90;;;;;;6223670;23;20189;-80
2021/01/03 01:17:27;;;;;;;8.77;7.68;;;1.70;99.90;;;;;;6223831;23;20198;-81
2021/01/03 01:19:53;;;;;;;9.02;7.90;;;1.60;99.90;;;;;;6223950;23;20212;-81
2021/01/03 01:22:21;;;;;;;9.98;8.80;;;1.60;99.90;;;;;;6223770;23;20174;-81
2021/01/03 01:24:47;;;;;;;9.30;8.00;;;1.70;99.90;;;;;;6225106;23;20182;-81
2021/01/03 01:27:14;;;;;;;8.80;7.93;;;1.70;99.90;;;;;;6224381;23;20206;-81
2021/01/03 01:29:40;;;;;;;7.32;6.20;;;1.80;99.90;;;;;;6223640;23;20186;-80
2021/01/03 01:32:06;;;;;;;9.45;8.45;;;1.80;99.90;;;;;;6224128;23;20178;-80
2021/01/03 01:34:33;;;;;;;10.23;9.07;;;1.70;99.90;;;;;;6224451;23;20193;-81
2021/01/03 01:36:59;;;;;;;10.20;7.95;;;1.70;99.90;;;;;;6223865;23;20205;-80
2021/01/03 01:39:26;;;;;;;9.13;7.45;;;1.80;99.90;;;;;;6223301;23;20178;-81
2021/01/03 01:41:52;;;;;;;8.73;7.82;;;1.80;99.90;;;;;;6223125;23;20182;-80
2021/01/03 01:44:19;;;;;;;10.38;9.32;;;1.70;99.90;;;;;;6224041;23;20174;-81
2021/01/03 01:46:55;;;;;;;10.18;8.50;;;1.60;99.90;;;;;;6222696;23;20739;-80
2021/01/03 01:49:22;;;;;;;9.73;7.93;;;1.50;99.90;;;;;;6224922;23;20177;-80
2021/01/03 01:51:52;;;;;;;9.82;8.82;;;1.50;99.90;;;;;;6224248;23;20178;-81
2021/01/03 01:54:22;;;;;;;8.68;7.82;;;1.50;99.90;;;;;;6224490;23;20182;-81
2021/01/03 01:56:55;;;;;;;11.52;8.55;;;1.60;99.90;;;;;;6224368;23;20217;-80
2021/01/03 01:59:29;;;;;;;11.18;9.43;;;1.50;99.90;;;;;;6225222;23;20176;-81
2021/01/03 02:02:06;;;;;;;9.50;8.50;;;1.60;99.90;;;;;;6224800;23;20166;-81
2021/01/03 02:04:36;;;;;;;10.80;9.68;;;1.60;99.90;;;;;;6224507;23;20172;-81
2021/01/03 02:07:09;;;;;;;8.93;8.02;;;1.70;99.90;;;;;;6225498;23;20202;-81
2021/01/03 02:09:48;;;;;;;10.43;9.10;;;1.60;99.90;;;;;;6223980;23;20170;-80
2021/01/03 02:12:26;;;;;;;9.30;8.27;;;1.60;99.90;;;;;;6225086;23;20192;-81
2021/01/03 02:14:53;;;;;;;9.60;8.60;;;1.60;99.90;;;;;;6224644;23;20212;-81
2021/01/03 02:17:21;;;;;;;9.43;8.45;;;1.50;99.90;;;;;;6225617;23;20674;-81
2021/01/03 02:19:49;;;;;;;10.68;9.65;;;1.50;99.90;;;;;;6224633;23;20182;-81
2021/01/03 02:22:24;;;;;;;14.13;10.15;;;1.60;99.90;;;;;;6223845;23;20178;-81
2021/01/03 02:24:57;;;;;;;11.35;9.02;;;1.50;99.90;;;;;;6224720;23;20269;-81
2021/01/03 02:27:31;;;;;;;12.13;10.88;;;1.60;99.90;;;;;;6224138;23;20206;-81
2021/01/03 02:29:59;;;;;;;11.02;9.95;;;1.60;99.90;;;;;;6224295;23;20165;-81
2021/01/03 02:32:26;;;;;;;10.85;9.77;;;1.50;99.90;;;;;;6223922;23;20178;-81
2021/01/03 02:34:53;;;;;;;10.95;8.93;;;1.30;99.90;;;;;;6224706;23;20178;-81
2021/01/03 02:37:23;;;;;;;10.15;8.32;;;1.40;99.90;;;;;;6224055;23;20665;-81
2021/01/03 02:39:53;;;;;;;13.82;8.35;;;1.40;99.90;;;;;;6224272;23;20166;-81
2021/01/03 02:42:24;;;;;;;11.30;9.82;;;1.40;99.90;;;;;;6223198;23;20178;-81
2021/01/03 02:44:50;;;;;;;12.43;11.13;;;1.40;99.90;;;;;;6224403;23;20505;-81
2021/01/03 02:47:21;;;;;;;13.52;10.30;;;1.40;99.90;;;;;;6223873;23;20549;-81
2021/01/03 02:49:47;;;;;;;12.00;8.68;;;1.40;99.90;;;;;;6225904;23;20604;-81
2021/01/03 02:52:22;;;;;;;12.98;10.02;;;1.50;99.90;;;;;;6224665;23;20224;-81
2021/01/03 02:54:48;;;;;;;12.88;11.23;;;1.40;99.90;;;;;;6224481;23;20166;-80
2021/01/03 02:57:14;;;;;;;12.23;10.85;;;1.20;99.90;;;;;;6225499;23;20198;-81
2021/01/03 02:59:41;;;;;;;13.77;11.25;;;1.30;99.90;;;;;;6225597;23;20185;-81
2021/01/03 03:02:08;;;;;;;13.77;11.85;;;1.30;99.90;;;;;;6224745;23;20197;-81
2021/01/03 03:04:34;;;;;;;14.38;10.30;;;1.40;99.90;;;;;;6224169;23;20189;-81
2021/01/03 03:07:00;;;;;;;14.10;11.00;;;1.40;99.90;;;;;;6225044;23;20202;-81
2021/01/03 03:09:26;;;;;;;12.65;10.95;;;1.50;99.90;;;;;;6224223;23;20182;-81
2021/01/03 03:11:52;;;;;;;16.92;11.73;;;1.50;99.90;;;;;;6224081;23;20186;-81
2021/01/03 03:14:19;;;;;;;11.65;10.45;;;1.50;99.90;;;;;;6223367;23;20193;-81
2021/01/03 03:16:46;;;;;;;12.88;10.10;;;1.50;99.90;;;;;;6223813;23;20198;-81
2021/01/03 03:19:12;;;;;;;13.65;10.07;;;1.50;99.90;;;;;;6222188;23;20181;-81
2021/01/03 03:21:38;;;;;;;15.70;11.63;;;1.50;99.90;;;;;;6225467;23;20603;-81
2021/01/03 03:24:05;;;;;;;12.60;10.10;;;1.50;99.90;;;;;;6225514;23;20178;-81
2021/01/03 03:26:31;;;;;;;16.23;13.57;;;1.50;99.90;;;;;;6224948;23;20210;-81
2021/01/03 03:28:57;;;;;;;14.23;10.30;;;1.40;99.90;;;;;;6225008;23;20228;-81
2021/01/03 03:31:28;;;;;;;16.63;11.38;;;1.30;99.90;;;;;;6225143;23;20184;-81
2021/01/03 03:33:55;;;;;;;18.33;12.00;;;1.30;99.90;;;;;;6225005;23;20170;-81
2021/01/03 03:36:21;;;;;;;15.93;11.68;;;1.30;99.90;;;;;;6224209;23;20174;-81
2021/01/03 03:38:47;;;;;;;14.30;12.23;;;1.20;99.90;;;;;;6225524;23;20185;-81
2021/01/03 03:41:19;;;;;;;14.02;11.82;;;1.20;99.90;;;;;;6225690;23;20184;-81
2021/01/03 03:43:45;;;;;;;15.95;11.52;;;1.20;99.90;;;;;;6221687;23;20181;-82
2021/01/03 03:46:11;;;;;;;13.52;10.52;;;1.20;99.90;;;;;;6217855;23;20832;-82
2021/01/03 03:48:37;;;;;;;16.17;12.18;;;1.20;99.90;;;;;;6218113;23;20185;-82
2021/01/03 03:51:05;;;;;;;15.45;11.40;;;1.20;99.90;;;;;;6218112;23;20496;-82
2021/01/03 03:53:31;;;;;;;14.15;11.60;;;1.20;99.90;;;;;;6217517;23;20708;-82
2021/01/03 03:55:57;;;;;;;13.23;10.90;;;1.20;99.90;;;;;;6218438;23;20178;-82
2021/01/03 03:58:23;;;;;;;15.43;12.35;;;1.20;99.90;;;;;;6217949;23;20197;-82
2021/01/03 04:00:49;;;;;;;15.65;11.85;;;1.20;99.90;;;;;;6217875;23;20563;-82
2021/01/03 04:03:18;;;;;;;12.25;10.43;;;1.20;99.90;;;;;;6217802;23;20189;-82
2021/01/03 04:05:45;;;;;;;17.02;12.63;;;1.20;99.90;;;;;;6218034;23;20205;-82
2021/01/03 04:08:12;;;;;;;12.90;11.23;;;1.20;99.90;;;;;;6217409;23;20213;-82
2021/01/03 04:10:40;;;;;;;15.32;11.90;;;1.30;99.90;;;;;;6218320;23;20177;-82
2021/01/03 04:13:07;;;;;;;13.13;11.77;;;1.30;99.90;;;;;;6217515;23;20716;-82
2021/01/03 04:15:33;;;;;;;14.13;10.68;;;1.30;99.90;;;;;;6217099;23;20182;-82
2021/01/03 04:17:59;;;;;;;18.90;12.23;;;1.30;99.90;;;;;;6216874;23;20201;-82
2021/01/03 04:20:26;;;;;;;18.95;11.88;;;1.30;99.90;;;;;;6217939;23;20186;-82
2021/01/03 04:22:52;;;;;;;14.15;12.00;;;1.30;99.90;;;;;;6217812;23;20188;-82
2021/01/03 04:25:19;;;;;;;17.73;13.45;;;1.30;99.90;;;;;;6218077;23;20489;-82
2021/01/03 04:27:46;;;;;;;15.35;12.75;;;1.30;99.90;;;;;;6217957;23;20213;-82
2021/01/03 04:30:14;;;;;;;15.48;11.73;;;1.20;99.90;;;;;;6218708;23;20185;-82
2021/01/03 04:32:40;;;;;;;17.40;11.65;;;1.20;99.90;;;;;;6217756;23;20708;-82
2021/01/03 04:35:08;;;;;;;14.52;12.18;;;1.20;99.90;;;;;;6218437;23;20232;-82
2021/01/03 04:37:35;;;;;;;20.23;12.50;;;1.10;99.90;;;;;;6218122;23;20201;-83
2021/01/03 04:40:01;;;;;;;15.73;12.50;;;1.10;99.90;;;;;;6218138;23;20177;-82
2021/01/03 04:42:34;;;;;;;16.95;12.52;;;1.20;99.90;;;;;;6217679;23;20177;-82
2021/01/03 04:45:03;;;;;;;17.15;13.48;;;1.20;99.90;;;;;;6219998;23;20182;-82
2021/01/03 04:47:33;;;;;;;15.95;11.93;;;1.20;99.90;;;;;;6220441;23;20677;-82
2021/01/03 04:50:11;;;;;;;14.27;12.20;;;1.30;99.90;;;;;;6219954;23;20208;-82
2021/01/03 04:53:01;;;;;;;17.15;13.10;;;1.30;99.90;;;;;;6219406;23;20613;-82
2021/01/03 04:55:29;;;;;;;13.57;11.00;;;1.30;99.90;;;;;;6219881;23;20167;-82
2021/01/03 04:58:10;;;;;;;14.45;12.52;;;1.30;99.90;;;;;;6219319;23;20555;-82
2021/01/03 05:00:41;;;;;;;17.75;12.20;;;1.40;99.90;;;;;;6219465;23;20166;-82
2021/01/03 05:03:44;;;;;;;19.60;13.27;;;1.40;99.90;;;;;;6223426;23;20213;-82
2021/01/03 05:06:16;;;;;;;14.02;11.63;;;1.40;99.90;;;;;;6201069;23;20193;-82
2021/01/03 05:08:46;;;;;;;14.73;11.55;;;1.40;99.90;;;;;;6220490;23;20166;-82
2021/01/03 05:11:15;;;;;;;15.23;12.23;;;1.40;99.90;;;;;;6220404;23;20166;-82
2021/01/03 05:13:57;;;;;;;15.88;12.25;;;1.50;99.90;;;;;;6219432;23;20186;-83
2021/01/03 05:16:23;;;;;;;18.20;13.18;;;1.50;99.90;;;;;;6220310;23;20216;-83
2021/01/03 05:18:50;;;;;;;15.55;11.23;;;1.50;99.90;;;;;;6220014;23;20177;-83
2021/01/03 05:21:16;;;;;;;15.48;13.55;;;1.50;99.90;;;;;;6228510;23;20185;-81
2021/01/03 05:23:58;;;;;;;17.73;12.60;;;1.50;99.90;;;;;;6231226;23;20389;-82
2021/01/03 05:26:35;;;;;;;13.70;10.73;;;1.50;99.90;;;;;;6230395;23;20182;-81
2021/01/03 05:29:02;;;;;;;14.52;11.73;;;1.50;99.90;;;;;;6231636;23;20173;-82
2021/01/03 05:31:30;;;;;;;13.27;10.10;;;1.50;99.90;;;;;;6231114;23;20185;-81
2021/01/03 05:33:58;;;;;;;14.00;11.27;;;1.50;99.90;;;;;;6231505;23;20201;-82
2021/01/03 05:36:44;;;;;;;15.38;10.38;;;1.60;99.90;;;;;;6231625;23;20251;-82
2021/01/03 05:39:26;;;;;;;15.20;11.55;;;1.50;99.90;;;;;;6231242;23;20169;-81
2021/01/03 05:42:12;;;;;;;16.30;10.68;;;1.50;99.90;;;;;;6224329;23;20174;-83
2021/01/03 05:44:43;;;;;;;13.02;10.90;;;1.50;99.90;;;;;;6220032;23;20495;-83
2021/01/03 05:47:18;;;;;;;13.77;11.80;;;1.50;99.90;;;;;;6220187;23;20202;-83
2021/01/03 05:49:45;;;;;;;12.77;9.68;;;1.40;99.90;;;;;;6219707;23;20173;-83
2021/01/03 05:52:19;;;;;;;15.07;11.02;;;1.40;99.90;;;;;;6219642;23;20178;-83
2021/01/03 05:54:47;;;;;;;11.85;10.65;;;1.30;99.90;;;;;;6218908;23;20192;-83
2021/01/03 05:57:25;;;;;;;13.60;11.43;;;1.30;99.90;;;;;;6219197;23;20202;-82
2021/01/03 05:59:52;;;;;;;17.77;13.40;;;1.30;99.90;;;;;;6219778;23;20166;-83
2021/01/03 06:02:23;;;;;;;18.10;11.90;;;1.20;99.90;;;;;;6219414;23;20201;-84
2021/01/03 06:05:03;;;;;;;16.83;12.55;;;1.20;99.90;;;;;;6221207;23;20212;-83
2021/01/03 06:07:30;;;;;;;17.88;11.75;;;1.20;99.90;;;;;;6219090;23;20205;-82
2021/01/03 06:09:56;;;;;;;14.45;11.45;;;1.20;99.90;;;;;;6219408;23;20178;-82
2021/01/03 06:12:25;;;;;;;16.20;12.13;;;1.20;99.90;;;;;;6219553;23;20189;-82
2021/01/03 06:14:54;;;;;;;16.08;12.82;;;1.20;99.90;;;;;;6220145;23;20167;-83
2021/01/03 06:17:36;;;;;;;18.55;12.63;;;1.10;99.90;;;;;;6219906;23;20201;-82
2021/01/03 06:20:13;;;;;;;16.80;13.25;;;1.20;99.90;;;;;;6215944;23;20185;-82
2021/01/03 06:22:46;;;;;;;16.58;12.10;;;1.20;99.90;;;;;;6219305;23;20173;-82
2021/01/03 06:25:41;;;;;;;16.92;12.02;;;1.20;99.90;;;;;;6219739;23;20162;-82
2021/01/03 06:28:13;;;;;;;17.05;12.75;;;1.20;99.90;;;;;;6212127;23;20208;-82
2021/01/03 06:30:43;;;;;;;19.92;11.82;;;1.20;99.90;;;;;;6219960;23;20167;-82
2021/01/03 06:33:45;;;;;;;17.38;12.50;;;1.20;99.90;;;;;;6219443;23;20166;-82
2021/01/03 06:36:15;;;;;;;19.15;12.80;;;1.20;99.90;;;;;;6219172;23;20189;-82
2021/01/03 06:39:00;;;;;;;19.30;12.98;;;1.30;99.90;;;;;;6220419;23;20660;-82
2021/01/03 06:41:44;;;;;;;18.90;13.18;;;1.30;99.90;;;;;;6219792;23;20170;-82
2021/01/03 06:44:40;;;;;;;21.15;14.50;;;1.30;99.90;;;;;;6218829;23;20166;-82
2021/01/03 06:47:56;;;;;;;15.02;12.10;;;1.30;99.90;;;;;;6219622;23;20212;-82
2021/01/03 06:51:02;;;;;;;20.38;14.50;;;1.20;99.90;;;;;;6219407;23;20182;-83
2021/01/03 06:54:01;;;;;;;18.70;13.25;;;1.10;99.90;;;;;;6219147;23;20478;-82
2021/01/03 06:56:52;;;;;;;16.25;13.65;;;1.20;99.90;;;;;;6219377;23;20167;-82
2021/01/03 06:59:40;;;;;;;19.73;15.35;;;1.10;99.90;;;;;;6220113;23;20170;-82
2021/01/03 07:02:06;;;;;;;18.75;13.80;;;1.10;99.90;;;;;;6219135;23;20163;-82
2021/01/03 07:04:36;;;;;;;19.00;13.07;;;1.20;99.90;;;;;;6219519;23;20189;-82
2021/01/03 07:07:11;;;;;;;16.60;13.27;;;1.20;99.90;;;;;;6218434;23;20232;-82
2021/01/03 07:09:54;;;;;;;20.70;14.50;;;1.20;99.90;;;;;;6219451;23;20166;-82
2021/01/03 07:12:36;;;;;;;19.23;13.73;;;1.20;99.90;;;;;;6219192;23;20174;-82
2021/01/03 07:15:09;;;;;;;17.40;11.38;;;1.30;99.90;;;;;;6218606;23;20173;-82
2021/01/03 07:18:08;;;;;;;14.30;12.10;;;1.30;99.90;;;;;;6219004;23;20201;-82
2021/01/03 07:20:37;;;;;;;18.00;13.35;;;1.30;99.90;;;;;;6218931;23;20633;-82
2021/01/03 07:23:13;;;;;;;16.88;12.93;;;1.30;99.90;;;;;;6218670;23;20185;-82
2021/01/03 07:25:46;;;;;;;19.45;11.88;;;1.40;99.90;;;;;;6219365;23;20169;-82
2021/01/03 07:28:15;;;;;;;18.02;14.00;;;1.30;99.90;;;;;;6218720;23;20214;-82
2021/01/03 07:30:53;;;;;;;17.38;12.57;;;1.30;99.90;;;;;;6218822;23;20178;-82
2021/01/03 07:33:50;;;;;;;15.35;11.55;;;1.40;99.90;;;;;;6218273;23;20173;-83
2021/01/03 07:36:27;;;;;;;20.17;14.20;;;1.40;99.90;;;;;;6213007;23;20182;-82
2021/01/03 07:39:16;;;;;;;22.38;13.50;;;1.30;99.90;;;;;;6218664;23;20556;-83
2021/01/03 07:41:43;;;;;;;16.92;14.13;;;1.30;99.90;;;;;;6217924;23;20170;-82
2021/01/03 07:44:12;;;;;;;18.25;13.88;;;1.30;99.90;;;;;;6218057;23;20178;-82
2021/01/03 07:46:53;;;;;;;19.42;14.15;;;1.30;99.90;;;;;;6218558;23;20625;-82
2021/01/03 07:49:24;;;;;;;18.52;12.32;;;1.40;99.90;;;;;;6219050;23;20162;-82
2021/01/03 07:51:52;;;;;;;15.93;12.38;;;1.40;99.90;;;;;;6217798;23;20204;-82
2021/01/03 07:54:18;;;;;;;18.02;12.82;;;1.40;99.90;;;;;;6216957;23;20181;-82
2021/01/03 07:56:45;;;;;;;14.75;12.05;;;1.40;99.90;;;;;;6217075;23;20193;-82
2021/01/03 07:59:11;;;;;;;20.33;12.35;;;1.40;99.90;;;;;;6216796;23;20242;-82
2021/01/03 08:01:42;;;;;;;16.50;12.85;;;1.50;99.90;;;;;;6217273;23;20208;-82
2021/01/03 08:04:12;;;;;;;18.25;13.07;;;1.40;99.90;;;;;;6217938;23;20216;-82
2021/01/03 08:06:38;;;;;;;17.65;13.10;;;1.40;99.90;;;;;;6218284;23;20202;-82
2021/01/03 08:09:05;;;;;;;17.00;11.75;;;1.50;99.90;;;;;;6218176;23;20189;-82
2021/01/03 08:11:36;;;;;;;16.70;12.75;;;1.50;99.90;;;;;;6217569;23;20188;-82
2021/01/03 08:14:06;;;;;;;17.67;13.15;;;1.60;99.90;;;;;;6217596;23;20649;-82
2021/01/03 08:16:33;;;;;;;16.45;13.50;;;1.60;99.90;;;;;;6217891;23;20521;-82
2021/01/03 08:19:04;;;;;;;18.08;13.52;;;1.60;99.90;;;;;;6218018;23;20177;-82
2021/01/03 08:21:32;;;;;;;21.00;13.90;;;1.60;99.90;;;;;;6217825;23;20212;-82
2021/01/03 08:24:09;;;;;;;16.63;13.50;;;1.60;99.90;;;;;;6217591;23;20181;-82
2021/01/03 08:26:41;;;;;;;16.17;13.13;;;1.70;99.90;;;;;;6218409;23;20207;-82
2021/01/03 08:29:21;;;;;;;20.00;14.10;;;1.80;99.90;;;;;;6217860;23;20166;-82
2021/01/03 08:31:49;;;;;;;17.30;13.32;;;1.80;99.90;;;;;;6217876;23;20166;-82
2021/01/03 08:34:18;;;;;;;16.75;13.50;;;1.70;99.90;;;;;;6218517;23;20182;-82
2021/01/03 08:36:44;;;;;;;18.20;13.25;;;1.70;99.90;;;;;;6218167;23;20198;-82
2021/01/03 08:39:14;;;;;;;16.67;11.98;;;1.80;99.90;;;;;;6218099;23;20185;-82
2021/01/03 08:41:50;;;;;;;13.75;11.18;;;1.90;99.90;;;;;;6217779;23;20217;-82
2021/01/03 08:44:21;;;;;;;18.02;12.05;;;1.90;99.90;;;;;;6218845;23;20166;-81
2021/01/03 08:46:48;;;;;;;17.15;12.85;;;2.00;99.90;;;;;;6218769;23;20205;-82
2021/01/03 08:49:16;;;;;;;16.10;13.45;;;1.90;99.90;;;;;;6218372;23;20634;-82
2021/01/03 08:51:42;;;;;;;14.52;12.35;;;1.90;99.90;;;;;;6218215;23;20194;-82
2021/01/03 08:54:12;;;;;;;17.33;12.70;;;2.00;99.90;;;;;;6218972;23;20204;-82
2021/01/03 08:56:44;;;;;;;21.33;13.02;;;2.00;99.90;;;;;;6218640;23;20285;-81
2021/01/03 08:59:13;;;;;;;22.58;13.27;;;2.00;99.90;;;;;;6218031;23;20166;-82
2021/01/03 09:01:39;;;;;;;19.52;15.40;;;1.90;99.90;;;;;;6218467;23;20182;-82
2021/01/03 09:04:07;;;;;;;17.02;14.00;;;2.00;99.90;;;;;;6218894;23;20209;-82
2021/01/03 09:06:35;;;;;;;18.60;13.20;;;2.10;99.90;;;;;;6218186;23;20202;-82
2021/01/03 09:09:09;;;;;;;16.27;11.90;;;2.20;99.90;;;;;;6218988;23;20182;-82
2021/01/03 09:11:38;;;;;;;16.52;12.20;;;2.30;99.90;;;;;;6218298;23;20220;-83
2021/01/03 09:14:14;;;;;;;15.25;12.00;;;2.20;99.90;;;;;;6219525;23;20186;-82
2021/01/03 09:16:49;;;;;;;16.25;14.55;;;2.30;99.90;;;;;;6218261;23;20201;-82
2021/01/03 09:19:21;;;;;;;18.15;11.60;;;2.40;99.90;;;;;;6218546;23;20169;-83
2021/01/03 09:21:50;;;;;;;13.90;11.38;;;2.30;99.90;;;;;;6218647;23;20166;-82
2021/01/03 09:24:23;;;;;;;16.40;11.55;;;2.20;99.90;;;;;;6220514;23;20178;-82
2021/01/03 09:26:50;;;;;;;11.48;10.18;;;2.20;99.90;;;;;;6220975;23;20233;-83
2021/01/03 09:29:25;;;;;;;14.48;11.75;;;2.20;99.90;;;;;;6222379;23;20189;-82
2021/01/03 09:32:08;;;;;;;13.20;10.10;;;2.00;99.90;;;;;;6221175;23;20162;-82
2021/01/03 09:34:50;;;;;;;11.48;9.50;;;2.00;99.90;;;;;;6223001;23;20169;-82
2021/01/03 09:37:25;;;;;;;12.00;9.65;;;2.00;99.90;;;;;;6220824;23;20194;-82
2021/01/03 09:40:17;;;;;;;15.73;10.80;;;2.10;99.90;;;;;;6220944;23;20220;-82
2021/01/03 09:42:59;;;;;;;13.88;9.93;;;2.00;99.90;;;;;;6220191;23;20201;-82
2021/01/03 09:45:57;;;;;;;14.30;11.00;;;1.90;99.90;;;;;;6219539;23;20186;-82
2021/01/03 09:48:30;;;;;;;12.63;11.30;;;1.90;99.90;;;;;;6218580;23;20217;-81
2021/01/03 09:51:24;;;;;;;14.07;10.55;;;2.00;99.90;;;;;;6218989;23;20185;-82
2021/01/03 09:54:02;;;;;;;14.68;9.98;;;2.00;99.90;;;;;;6219020;23;20222;-82
2021/01/03 09:56:39;;;;;;;12.23;10.25;;;2.00;99.90;;;;;;6218282;23;20166;-81
2021/01/03 09:59:13;;;;;;;12.10;9.85;;;2.10;99.90;;;;;;6218944;23;20170;-81
2021/01/03 10:01:39;;;;;;;14.82;11.13;;;2.30;99.90;;;;;;6218400;23;20162;-81
2021/01/03 10:04:23;;;;;;;11.63;10.35;;;2.40;99.90;;;;;;6218720;23;20637;-81
2021/01/03 10:06:52;;;;;;;15.77;11.00;;;2.50;99.90;;;;;;6217943;23;20209;-81
2021/01/03 10:09:34;;;;;;;11.48;8.35;;;2.60;99.90;;;;;;6219516;23;20185;-81
2021/01/03 10:12:42;;;;;;;;;;;;;;;;;;;;;
2021/01/03 10:15:18;;;;;;;12.68;9.95;;;2.60;99.90;;;;;;6177820;23;20569;-81
2021/01/03 10:18:03;;;;;;;15.80;10.90;;;2.60;99.90;;;;;;6190296;23;20234;-82
2021/01/03 10:28:08;;;;;;;;;;;;;;;;;;;;;
2021/01/03 10:30:40;;;;;;;13.05;11.32;;;2.70;99.90;;;;;;6043570;23;20185;-83
2021/01/03 10:33:27;;;;;;;16.00;10.75;;;2.50;99.90;;;;;;6038605;23;20181;-82
2021/01/03 10:35:55;;;;;;;16.27;12.20;;;2.60;99.90;;;;;;6161105;23;20182;-82
2021/01/03 10:38:22;;;;;;;13.27;11.65;;;2.60;99.90;;;;;;6187053;23;20287;-82
2021/01/03 10:40:55;;;;;;;14.98;11.73;;;2.60;99.90;;;;;;6187150;23;20548;-82
2021/01/03 10:43:38;;;;;;;13.10;10.85;;;2.60;99.90;;;;;;6189683;23;20591;-83
2021/01/03 11:04:33;;;;;;;;;;;;;;;;;;;;;
2021/01/03 11:10:49;;;;;;;16.25;12.43;;;2.40;99.90;;;;;;5915873;23;20313;-82
2021/01/03 11:13:34;;;;;;;12.35;10.48;;;2.40;99.90;;;;;;6172780;23;20197;-83
2021/01/03 11:16:08;;;;;;;15.85;11.98;;;2.40;99.90;;;;;;6221229;23;20178;-83
2021/01/03 11:18:40;;;;;;;13.52;11.02;;;2.40;99.90;;;;;;6217774;23;20197;-83
2021/01/03 11:21:25;;;;;;;;;;;;;;;;;;;;;
2021/01/03 11:24:18;;;;;;;12.85;10.55;;;2.60;99.90;;;;;;6209141;23;20248;-83
2021/01/03 11:27:05;;;;;;;13.07;11.10;;;2.70;99.90;;;;;;6169846;23;20569;-83
2021/01/03 11:32:51;;;;;;;;;;;;;;;;;;;;;
2021/01/03 11:35:36;;;;;;;15.30;11.73;;;2.90;99.90;;;;;;6206389;23;20253;-83
2021/01/03 11:38:47;;;;;;;;;;;;;;;;;;;;;
2021/01/03 11:41:18;;;;;;;13.82;12.02;;;3.10;99.90;;;;;;6037494;23;20188;-83
2021/01/03 11:43:44;;;;;;;14.85;11.43;;;3.20;99.90;;;;;;6037363;23;20573;-82
2021/01/03 11:46:10;;;;;;;16.17;10.77;;;3.20;99.90;;;;;;6160010;23;20189;-82
2021/01/03 11:48:38;;;;;;;13.93;10.23;;;3.30;99.90;;;;;;6216283;23;20201;-82
2021/01/03 11:51:05;;;;;;;13.40;10.13;;;3.20;99.90;;;;;;6216449;23;20177;-81
2021/01/03 11:53:32;;;;;;;13.65;10.15;;;3.20;99.90;;;;;;6217030;23;20189;-82
2021/01/03 11:55:58;;;;;;;13.18;11.82;;;3.30;99.90;;;;;;6216487;23;20178;-81
2021/01/03 11:58:24;;;;;;;12.63;11.20;;;3.30;99.90;;;;;;6216942;23;20252;-81
2021/01/03 12:00:51;;;;;;;12.43;11.20;;;3.30;99.90;;;;;;6216049;23;20178;-81
2021/01/03 12:03:18;;;;;;;13.02;9.95;;;3.40;99.90;;;;;;6216706;23;20187;-81
2021/01/03 12:05:44;;;;;;;14.48;11.00;;;3.40;99.90;;;;;;6216437;23;20174;-81
2021/01/03 12:08:12;;;;;;;13.85;11.00;;;3.50;99.90;;;;;;6216401;23;20202;-82
2021/01/03 12:10:39;;;;;;;14.75;11.77;;;3.50;99.90;;;;;;6215683;23;20163;-82
2021/01/03 12:13:05;;;;;;;14.10;12.13;;;3.60;99.90;;;;;;6215569;23;20186;-82
2021/01/03 12:15:31;;;;;;;12.80;10.52;;;3.60;99.90;;;;;;6215775;23;20178;-81
2021/01/03 12:17:59;;;;;;;12.60;9.23;;;3.60;99.90;;;;;;6215560;23;20196;-81
2021/01/03 12:20:26;;;;;;;13.10;11.70;;;3.70;99.90;;;;;;6215273;23;20178;-80
2021/01/03 12:22:52;;;;;;;13.50;10.77;;;3.70;99.90;;;;;;6215245;23;20355;-80
2021/01/03 12:25:20;;;;;;;14.38;10.88;;;3.70;99.90;;;;;;6224272;23;20249;-81
2021/01/03 12:27:46;;;;;;;15.15;11.30;;;3.70;99.90;;;;;;6228746;23;20260;-83
2021/01/03 12:30:14;;;;;;;12.57;9.68;;;3.70;99.90;;;;;;6230371;23;20186;-82
2021/01/03 12:32:41;;;;;;;13.20;10.32;;;3.70;99.90;;;;;;6228819;23;20517;-82
2021/01/03 12:35:09;;;;;;;14.75;11.40;;;3.70;99.90;;;;;;6224575;23;20178;-82
2021/01/03 12:37:37;;;;;;;12.60;11.30;;;3.70;99.90;;;;;;6227435;23;20198;-82
2021/01/03 12:40:05;;;;;;;13.25;11.93;;;3.70;99.90;;;;;;6227673;23;20745;-82
2021/01/03 12:42:32;;;;;;;14.90;11.23;;;3.70;99.90;;;;;;6229404;23;20179;-82
2021/01/03 12:44:58;;;;;;;12.65;10.98;;;3.50;99.90;;;;;;6229618;23;20188;-84
2021/01/03 12:47:24;;;;;;;11.82;10.63;;;3.50;99.90;;;;;;6230105;23;20202;-82
2021/01/03 12:50:12;;;;;;;15.05;11.77;;;3.50;99.90;;;;;;6229565;23;20182;-84
2021/01/03 12:52:38;;;;;;;22.20;16.58;;;3.30;99.90;;;;;;6214513;23;20188;-83
2021/01/03 12:55:14;;;;;;;13.75;12.35;;;3.20;99.90;;;;;;6216198;23;20232;-85
2021/01/03 12:57:41;;;;;;;17.13;11.00;;;3.20;99.90;;;;;;6224172;23;20200;-83
2021/01/03 13:00:08;;;;;;;14.18;12.80;;;3.10;99.90;;;;;;6217343;23;20202;-80
2021/01/03 13:02:34;;;;;;;14.13;11.05;;;3.10;99.90;;;;;;6215939;23;20178;-79
2021/01/03 13:05:00;;;;;;;28.02;17.65;;;3.00;99.90;;;;;;6217404;23;20178;-80
2021/01/03 13:07:27;;;;;;;23.58;17.30;;;3.10;99.90;;;;;;6217672;23;20816;-80
2021/01/03 13:09:53;;;;;;;14.35;12.05;;;2.90;99.90;;;;;;6217901;23;20182;-80
2021/01/03 13:12:19;;;;;;;19.05;14.50;;;2.70;99.90;;;;;;6217953;23;20182;-80
2021/01/03 13:14:46;;;;;;;20.23;16.30;;;2.60;99.90;;;;;;6217858;23;20162;-80
2021/01/03 13:17:12;;;;;;;16.30;13.52;;;2.60;99.90;;;;;;6217736;23;20202;-80
2021/01/03 13:19:40;;;;;;;16.23;13.32;;;2.70;99.90;;;;;;6217100;23;20182;-80
2021/01/03 13:22:06;;;;;;;13.38;12.07;;;2.80;99.90;;;;;;6217887;23;20189;-80
2021/01/03 13:24:32;;;;;;;19.77;14.98;;;2.90;99.90;;;;;;6217975;23;20232;-80
2021/01/03 13:26:59;;;;;;;17.10;14.40;;;2.90;99.90;;;;;;6218264;23;20205;-80
2021/01/03 13:29:25;;;;;;;15.43;12.77;;;2.70;99.90;;;;;;6218357;23;20189;-80
2021/01/03 13:31:58;;;;;;;18.55;15.20;;;2.90;99.90;;;;;;6217588;23;20182;-80
2021/01/03 13:34:24;;;;;;;18.88;15.20;;;2.90;99.90;;;;;;6217896;23;20167;-80
2021/01/03 13:36:52;;;;;;;22.33;16.77;;;2.80;99.90;;;;;;6217423;23;20202;-79
2021/01/03 13:39:18;;;;;;;19.45;14.77;;;2.90;99.90;;;;;;6217682;23;20208;-81
2021/01/03 13:41:47;;;;;;;17.85;14.23;;;3.00;99.90;;;;;;6217673;23;20507;-79
2021/01/03 13:44:13;;;;;;;17.80;14.88;;;2.90;99.90;;;;;;6217664;23;20671;-80